createdAt,value
2022-12-27T00:01:12.160Z,23.30
2022-12-27T00:03:39.985Z,22.50
2022-12-27T00:06:11.462Z,23.60
2022-12-27T00:08:38.418Z,32.40
2022-12-27T00:11:10.243Z,29.10
2022-12-27T00:13:37.192Z,29.60
2022-12-27T00:16:08.999Z,28.10
2022-12-27T00:18:36.196Z,26.50
2022-12-27T00:21:03.448Z,27.10
2022-12-27T00:23:32.673Z,34.90
2022-12-27T00:26:03.725Z,34.00
2022-12-27T00:28:34.249Z,70.30
2022-12-27T00:31:03.413Z,60.10
2022-12-27T00:33:30.996Z,53.50
2022-12-27T00:36:02.437Z,46.30
2022-12-27T00:38:29.409Z,38.20
2022-12-27T00:40:56.334Z,32.00
2022-12-27T00:43:24.178Z,35.40
2022-12-27T00:45:51.150Z,29.90
2022-12-27T00:48:17.951Z,31.80
2022-12-27T00:50:45.115Z,30.90
2022-12-27T00:53:12.394Z,44.70
2022-12-27T00:55:39.520Z,36.80
2022-12-27T00:58:06.474Z,45.30
2022-12-27T01:00:33.512Z,54.80
2022-12-27T01:03:00.556Z,51.80
2022-12-27T01:05:27.390Z,37.10
2022-12-27T01:07:54.441Z,40.40
2022-12-27T01:10:21.426Z,36.90
2022-12-27T01:12:48.333Z,46.90
2022-12-27T01:15:15.197Z,43.00
2022-12-27T01:17:42.124Z,43.20
2022-12-27T01:20:09.387Z,33.90
2022-12-27T01:22:36.516Z,27.50
2022-12-27T01:25:03.879Z,31.80
2022-12-27T01:27:30.709Z,31.20
2022-12-27T01:29:57.664Z,33.50
2022-12-27T01:32:24.611Z,30.50
2022-12-27T01:34:51.656Z,29.50
2022-12-27T01:37:18.710Z,27.00
2022-12-27T01:39:45.527Z,27.00
2022-12-27T01:42:35.843Z,27.10
2022-12-27T01:45:16.473Z,27.70
2022-12-27T01:48:09.969Z,29.40
2022-12-27T01:50:48.788Z,32.60
2022-12-27T01:53:28.640Z,32.40
2022-12-27T01:55:59.488Z,34.10
2022-12-27T01:58:55.193Z,30.30
2022-12-27T02:01:24.885Z,28.70
2022-12-27T02:04:19.091Z,30.90
2022-12-27T02:06:46.241Z,32.50
2022-12-27T02:09:36.731Z,36.80
2022-12-27T02:12:05.427Z,38.00
2022-12-27T02:14:39.251Z,36.60
2022-12-27T02:17:08.046Z,35.00
2022-12-27T02:19:41.287Z,32.50
2022-12-27T02:23:05.051Z,33.20
2022-12-27T02:25:53.630Z,33.80
2022-12-27T02:28:33.068Z,37.20
2022-12-27T02:31:09.599Z,39.20
2022-12-27T02:33:38.230Z,34.20
2022-12-27T02:36:06.109Z,36.70
2022-12-27T02:38:44.600Z,37.10
2022-12-27T02:41:30.271Z,41.20
2022-12-27T02:44:16.589Z,42.00
2022-12-27T02:47:02.374Z,43.10
2022-12-27T02:49:49.116Z,41.90
2022-12-27T02:52:41.215Z,38.00
2022-12-27T02:55:14.202Z,37.20
2022-12-27T02:57:53.178Z,37.50
2022-12-27T03:00:39.957Z,35.50
2022-12-27T03:03:32.223Z,42.20
2022-12-27T03:06:24.236Z,44.20
2022-12-27T03:09:09.940Z,41.80
2022-12-27T03:12:05.913Z,36.80
2022-12-27T03:15:01.635Z,37.50
2022-12-27T03:17:37.704Z,38.30
2022-12-27T03:20:25.987Z,43.00
2022-12-27T03:23:11.829Z,41.70
2022-12-27T03:25:41.056Z,38.40
2022-12-27T03:28:38.178Z,41.60
2022-12-27T03:31:30.948Z,41.30
2022-12-27T03:34:04.785Z,38.00
2022-12-27T03:36:50.383Z,42.20
2022-12-27T03:39:20.904Z,48.00
2022-12-27T03:42:09.599Z,43.70
2022-12-27T03:44:36.472Z,78.50
2022-12-27T03:47:17.517Z,69.60
2022-12-27T03:49:48.683Z,66.10
2022-12-27T03:52:25.539Z,43.00
2022-12-27T03:54:52.995Z,35.70
2022-12-27T03:57:25.314Z,37.40
2022-12-27T03:59:52.510Z,29.00
2022-12-27T04:02:19.576Z,30.10
2022-12-27T04:04:46.715Z,32.00
2022-12-27T04:07:13.906Z,29.00
2022-12-27T04:09:59.851Z,29.90
2022-12-27T04:12:45.643Z,66.90
2022-12-27T04:15:31.439Z,79.60
2022-12-27T04:18:17.600Z,75.70
2022-12-27T04:21:03.186Z,58.30
2022-12-27T04:23:48.610Z,47.10
2022-12-27T04:26:34.168Z,46.50
2022-12-27T04:29:19.694Z,50.10
2022-12-27T04:32:05.275Z,52.50
2022-12-27T04:34:44.286Z,52.60
2022-12-27T04:37:16.864Z,49.80
2022-12-27T04:40:04.250Z,49.30
2022-12-27T04:42:49.676Z,53.60
2022-12-27T04:45:35.186Z,52.10
2022-12-27T04:48:20.808Z,45.40
2022-12-27T04:51:06.249Z,50.00
2022-12-27T04:53:51.826Z,49.10
2022-12-27T04:56:18.688Z,45.50
2022-12-27T04:59:05.466Z,44.30
2022-12-27T05:01:51.085Z,44.50
2022-12-27T05:04:18.047Z,48.00
2022-12-27T05:06:44.885Z,42.80
2022-12-27T05:09:30.469Z,43.70
2022-12-27T05:12:15.883Z,45.50
2022-12-27T05:14:42.739Z,40.00
2022-12-27T05:17:09.633Z,44.60
2022-12-27T05:19:36.471Z,44.20
2022-12-27T05:22:21.937Z,39.80
2022-12-27T05:25:07.466Z,44.70
2022-12-27T05:27:34.479Z,48.70
2022-12-27T05:30:01.678Z,38.60
2022-12-27T05:32:28.452Z,39.00
2022-12-27T05:34:55.397Z,39.10
2022-12-27T05:37:22.264Z,40.10
2022-12-27T05:39:49.090Z,53.90
2022-12-27T05:42:17.061Z,66.30
2022-12-27T05:44:43.878Z,93.30
2022-12-27T05:47:10.651Z,77.60
2022-12-27T05:49:37.567Z,67.60
2022-12-27T05:52:04.577Z,68.70
2022-12-27T05:54:31.355Z,61.20
2022-12-27T05:56:58.201Z,64.50
2022-12-27T05:59:25.027Z,70.90
2022-12-27T06:01:51.963Z,69.70
2022-12-27T06:04:18.887Z,63.00
2022-12-27T06:06:45.816Z,64.50
2022-12-27T06:09:12.683Z,60.90
2022-12-27T06:11:39.542Z,62.10
2022-12-27T06:14:06.391Z,64.90
2022-12-27T06:16:36.168Z,59.80
2022-12-27T06:19:03.057Z,59.20
2022-12-27T06:21:30.081Z,60.70
2022-12-27T06:23:56.917Z,50.30
2022-12-27T06:26:25.519Z,50.80
2022-12-27T06:28:52.701Z,59.90
2022-12-27T06:31:20.115Z,62.50
2022-12-27T06:33:50.479Z,59.50
2022-12-27T06:36:19.010Z,57.40
2022-12-27T06:38:46.003Z,56.60
2022-12-27T06:41:13.895Z,50.40
2022-12-27T06:43:40.911Z,48.10
2022-12-27T06:46:16.882Z,52.40
2022-12-27T06:48:46.288Z,58.40
2022-12-27T06:51:13.392Z,58.40
2022-12-27T06:53:42.508Z,61.00
2022-12-27T06:56:11.098Z,62.60
2022-12-27T06:58:37.963Z,60.80
2022-12-27T07:01:12.045Z,54.60
2022-12-27T09:17:27.319Z,69.80
2022-12-27T09:19:54.378Z,87.80
2022-12-27T09:22:23.464Z,63.70
2022-12-27T09:24:50.429Z,63.30
2022-12-27T09:27:17.459Z,59.50
2022-12-27T09:29:48.233Z,59.60
2022-12-27T09:32:15.466Z,42.90
2022-12-27T09:34:42.499Z,32.40
2022-12-27T09:37:09.432Z,30.00
2022-12-27T09:39:36.588Z,15.30
2022-12-27T09:45:44.403Z,5.40
2022-12-27T09:48:33.053Z,4.30
2022-12-27T09:51:16.397Z,3.10
2022-12-27T09:53:48.169Z,1.80
2022-12-27T09:56:21.696Z,2.00
2022-12-27T09:58:56.427Z,6.20
2022-12-27T10:01:33.155Z,3.90
2022-12-27T10:04:00.651Z,6.00
2022-12-27T10:06:33.695Z,7.30
2022-12-27T10:09:16.849Z,5.40
2022-12-27T10:11:46.242Z,3.90
2022-12-27T10:14:40.910Z,10.50
2022-12-27T10:17:49.368Z,5.70
2022-12-27T10:20:40.765Z,4.70
2022-12-27T10:23:11.644Z,13.70
2022-12-27T10:25:39.448Z,17.70
2022-12-27T10:28:16.179Z,29.80
2022-12-27T10:30:43.680Z,9.80
2022-12-27T10:33:22.607Z,14.50
2022-12-27T10:35:49.454Z,27.50
2022-12-27T10:38:19.199Z,6.70
2022-12-27T10:41:15.937Z,8.10
2022-12-27T10:43:43.409Z,6.40
2022-12-27T10:46:21.291Z,6.30
2022-12-27T10:49:20.246Z,3.20
2022-12-27T10:51:41.574Z,6.20
2022-12-27T10:54:24.286Z,3.90
2022-12-27T10:56:51.430Z,3.70
2022-12-27T10:59:28.851Z,4.00
2022-12-27T11:02:02.573Z,2.80
2022-12-27T11:04:30.926Z,2.40
2022-12-27T11:07:01.026Z,3.40
2022-12-27T11:09:33.219Z,7.60
2022-12-27T11:12:26.192Z,2.00
2022-12-27T11:15:09.868Z,3.00
2022-12-27T11:18:07.735Z,2.20
2022-12-27T11:20:39.315Z,2.00
2022-12-27T11:23:09.421Z,2.20
2022-12-27T11:25:58.690Z,1.60
2022-12-27T11:28:39.055Z,4.40
2022-12-27T11:31:11.714Z,2.50
2022-12-27T11:33:55.265Z,5.00
2022-12-27T11:36:31.505Z,1.70
2022-12-27T11:38:58.878Z,1.00
2022-12-27T11:41:30.043Z,3.60
2022-12-27T11:44:21.243Z,2.10
2022-12-27T11:47:12.561Z,2.40
2022-12-27T11:50:03.461Z,1.90
2022-12-27T11:52:43.932Z,61.90
2022-12-27T11:55:30.023Z,19.00
2022-12-27T11:58:28.199Z,11.10
2022-12-27T12:01:20.148Z,5.90
2022-12-27T12:04:12.070Z,4.00
2022-12-27T12:06:46.908Z,2.30
2022-12-27T12:09:29.496Z,3.00
2022-12-27T12:12:48.148Z,1.70
2022-12-27T12:15:22.582Z,2.10
2022-12-27T12:18:22.606Z,2.50
2022-12-27T12:21:27.652Z,2.60
2022-12-27T12:24:19.787Z,1.20
2022-12-27T12:26:55.521Z,3.80
2022-12-27T12:29:39.149Z,3.40
2022-12-27T12:32:37.494Z,1.90
2022-12-27T12:35:26.185Z,3.80
2022-12-27T12:38:11.149Z,3.00
2022-12-27T12:41:15.065Z,2.70
2022-12-27T12:46:29.006Z,4.90
2022-12-27T12:49:08.357Z,5.10
2022-12-27T12:51:50.902Z,5.10
2022-12-27T12:54:45.957Z,7.60
2022-12-27T12:57:23.257Z,3.90
2022-12-27T13:00:10.145Z,4.10
2022-12-27T13:02:58.955Z,4.40
2022-12-27T13:05:44.304Z,3.50
2022-12-27T17:21:39.190Z,9.10
2022-12-27T17:24:13.341Z,25.90
2022-12-27T17:27:02.228Z,29.40
2022-12-27T17:29:30.086Z,19.70
2022-12-27T17:32:09.960Z,14.80
2022-12-27T17:34:44.386Z,9.70
2022-12-27T17:37:17.034Z,18.60
2022-12-27T17:40:06.093Z,12.20
2022-12-27T17:43:11.128Z,21.10
2022-12-27T17:45:59.774Z,15.10
2022-12-27T17:48:30.936Z,11.10
2022-12-27T17:51:12.421Z,14.40
2022-12-27T17:54:11.759Z,12.40
2022-12-27T17:57:05.197Z,9.50
2022-12-27T17:59:34.204Z,17.20
2022-12-27T18:02:07.011Z,11.80
2022-12-27T18:04:35.562Z,14.50
2022-12-27T18:07:07.692Z,30.10
2022-12-27T18:09:39.881Z,12.40
2022-12-27T18:12:40.696Z,15.00
2022-12-27T18:15:15.771Z,9.90
2022-12-27T18:18:03.945Z,11.10
2022-12-27T18:20:34.195Z,10.50
2022-12-27T18:23:01.189Z,10.60
2022-12-27T18:25:40.533Z,8.40
2022-12-27T18:28:16.741Z,9.40
2022-12-27T18:30:53.853Z,10.80
2022-12-27T18:33:25.571Z,17.50
2022-12-27T18:35:52.517Z,14.90
2022-12-27T18:38:32.673Z,11.20
2022-12-27T18:41:02.560Z,6.90
2022-12-27T18:43:29.530Z,7.60
2022-12-27T18:45:56.505Z,7.80
2022-12-27T18:48:23.938Z,13.40
2022-12-27T18:50:53.307Z,6.00
2022-12-27T18:53:25.236Z,8.40
2022-12-27T18:56:16.406Z,5.00
2022-12-27T18:59:06.053Z,4.10
2022-12-27T19:01:40.970Z,11.40
2022-12-27T19:04:14.516Z,7.90
2022-12-27T19:06:42.547Z,5.30
2022-12-27T19:09:14.443Z,7.60
2022-12-27T19:11:41.397Z,6.80
2022-12-27T19:14:12.436Z,6.60
2022-12-27T19:16:39.411Z,5.80
2022-12-27T19:19:19.774Z,8.10
2022-12-27T19:21:46.687Z,3.70
2022-12-27T19:24:30.827Z,9.50
2022-12-27T19:27:01.007Z,6.50
2022-12-27T19:29:33.358Z,6.30
2022-12-27T19:32:09.780Z,7.10
2022-12-27T19:34:44.474Z,5.90
2022-12-27T19:37:11.759Z,8.40
2022-12-27T19:39:39.173Z,9.10
2022-12-27T19:42:07.906Z,9.70
2022-12-27T19:44:37.419Z,13.70
2022-12-27T19:47:04.576Z,11.70
2022-12-27T19:49:42.694Z,11.30
2022-12-27T19:52:18.492Z,10.50
2022-12-27T19:54:49.039Z,10.50
2022-12-27T19:57:16.506Z,5.90
2022-12-27T19:59:44.623Z,6.70
2022-12-27T20:02:12.906Z,7.50
2022-12-27T20:04:42.899Z,6.20
2022-12-27T20:07:15.161Z,7.50
2022-12-27T20:09:42.389Z,7.10
2022-12-27T20:12:11.910Z,5.90
2022-12-27T20:14:39.152Z,9.00
2022-12-27T20:17:06.292Z,6.00
2022-12-27T20:19:33.758Z,8.30
2022-12-27T20:22:01.026Z,6.50
2022-12-27T20:24:31.752Z,9.40
2022-12-27T20:27:01.553Z,6.20
2022-12-27T20:29:32.807Z,10.70
2022-12-27T20:31:59.943Z,10.20
2022-12-27T20:34:27.044Z,10.60
2022-12-27T20:36:55.614Z,11.50
2022-12-27T20:39:26.838Z,9.90
2022-12-27T20:41:56.121Z,10.60
2022-12-27T20:44:23.091Z,8.20
2022-12-27T20:46:52.289Z,13.40
2022-12-27T20:49:21.469Z,10.10
2022-12-27T20:51:48.806Z,10.90
2022-12-27T20:54:18.320Z,14.00
2022-12-27T20:56:45.262Z,13.50
2022-12-27T20:59:12.209Z,12.20
2022-12-27T21:01:39.610Z,11.30
2022-12-27T21:04:06.812Z,10.20
2022-12-27T21:06:33.763Z,13.40
2022-12-27T21:09:00.721Z,6.80
2022-12-27T21:11:31.666Z,5.90
2022-12-27T21:14:03.218Z,5.50
2022-12-27T21:16:33.175Z,5.30
2022-12-27T21:19:05.132Z,8.90
2022-12-27T21:21:36.830Z,10.10
2022-12-27T21:24:06.383Z,7.40
2022-12-27T21:26:36.174Z,6.00
2022-12-27T21:29:05.753Z,7.70
2022-12-27T21:31:33.193Z,6.50
2022-12-27T21:34:00.222Z,7.90
2022-12-27T21:36:29.888Z,7.60
2022-12-27T21:38:57.089Z,4.80
2022-12-27T21:41:36.482Z,11.50
2022-12-27T21:44:03.471Z,7.10
2022-12-27T21:46:35.009Z,7.30
2022-12-27T21:49:15.341Z,6.30
2022-12-27T21:51:42.743Z,2.90
2022-12-27T21:54:10.695Z,6.10
2022-12-27T21:56:37.951Z,18.10
2022-12-27T21:59:10.778Z,9.20
2022-12-27T22:01:51.026Z,7.80
2022-12-27T22:04:20.615Z,14.30
2022-12-27T22:06:48.143Z,23.00
2022-12-27T22:09:15.148Z,28.70
2022-12-27T22:11:42.084Z,25.60
2022-12-27T22:14:09.151Z,18.40
2022-12-27T22:16:37.308Z,17.60
2022-12-27T22:19:11.112Z,16.10
2022-12-27T22:21:38.798Z,35.00
2022-12-27T22:24:05.912Z,138.80
2022-12-27T22:26:39.782Z,38.30
2022-12-27T22:29:07.966Z,9.20
2022-12-27T22:31:38.320Z,6.70
2022-12-27T22:34:05.741Z,7.60
2022-12-27T22:36:32.823Z,6.40
2022-12-27T22:39:00.025Z,7.30
2022-12-27T22:41:31.870Z,8.20
2022-12-27T22:44:01.904Z,6.50
2022-12-27T22:46:39.337Z,7.20
2022-12-27T22:49:16.338Z,8.80
2022-12-27T22:51:45.596Z,13.00
2022-12-27T22:54:12.430Z,8.70
2022-12-27T22:56:40.253Z,8.40
2022-12-27T22:59:14.349Z,7.90
2022-12-27T23:01:41.480Z,7.20
2022-12-27T23:04:10.171Z,6.30
2022-12-27T23:06:37.383Z,6.10
2022-12-27T23:09:04.489Z,9.10
2022-12-27T23:11:33.418Z,10.00
2022-12-27T23:14:01.886Z,7.60
2022-12-27T23:16:29.236Z,6.50
2022-12-27T23:18:56.096Z,7.20
2022-12-27T23:21:24.776Z,8.50
2022-12-27T23:23:52.355Z,8.30
2022-12-27T23:26:21.235Z,10.40
2022-12-27T23:28:48.423Z,10.30
2022-12-27T23:31:18.771Z,10.40
2022-12-27T23:33:46.122Z,13.20
2022-12-27T23:36:13.337Z,10.90
2022-12-27T23:38:41.472Z,8.50
2022-12-27T23:41:09.064Z,9.20
2022-12-27T23:43:55.038Z,9.40
2022-12-27T23:46:25.137Z,6.80
2022-12-27T23:48:52.077Z,8.50
2022-12-27T23:51:18.995Z,7.20
2022-12-27T23:53:45.875Z,7.60
2022-12-27T23:56:20.788Z,10.40
2022-12-27T23:58:47.964Z,8.80
